Time;durP1;ratioP1;P1;durP2;ratioP2;P2;SDS_P1;SDS_P2;PMS_P1;PMS_P2;Temp;Humidity;BMP_temperature;BMP_pressure;BME280_temperature;BME280_humidity;BME280_pressure;Samples;Min_cycle;Max_cycle;Signal;HPM_P1;HPM_P2
2022/10/20 00:01:27;;;;;;;129.03;122.40;;;10.00;99.90;;;;;;5029124;28;20470;-55
2022/10/20 00:03:53;;;;;;;129.70;122.88;;;10.00;99.90;;;;;;5028938;28;20387;-59
2022/10/20 00:06:22;;;;;;;120.13;114.03;;;9.90;99.90;;;;;;5028926;28;20448;-59
2022/10/20 00:08:52;;;;;;;127.93;121.32;;;9.90;99.90;;;;;;5026899;28;20461;-59
2022/10/20 00:11:19;;;;;;;133.02;126.22;;;9.90;99.90;;;;;;5029523;28;20596;-58
2022/10/20 00:13:49;;;;;;;127.72;121.38;;;10.00;99.90;;;;;;5028550;28;20788;-55
2022/10/20 00:16:22;;;;;;;126.95;120.25;;;9.90;99.90;;;;;;5030151;28;20513;-59
2022/10/20 00:18:48;;;;;;;127.93;121.45;;;9.90;99.90;;;;;;5027013;28;20785;-59
2022/10/20 00:21:19;;;;;;;126.95;120.57;;;9.90;99.90;;;;;;5027000;28;20387;-59
2022/10/20 00:23:46;;;;;;;119.37;113.27;;;10.00;99.90;;;;;;5028815;28;20530;-56
2022/10/20 00:26:23;;;;;;;124.75;118.32;;;9.90;99.90;;;;;;5027071;28;20402;-56
2022/10/20 00:28:50;;;;;;;122.72;116.53;;;10.00;99.90;;;;;;5026078;28;20414;-58
2022/10/20 00:31:20;;;;;;;118.10;112.25;;;9.90;99.90;;;;;;5024361;28;20394;-58
2022/10/20 00:33:49;;;;;;;118.75;112.63;;;9.80;99.90;;;;;;5024528;28;20376;-59
2022/10/20 00:36:20;;;;;;;114.25;108.65;;;9.80;99.90;;;;;;5046694;28;20643;-56
2022/10/20 00:38:46;;;;;;;119.15;113.25;;;9.80;99.90;;;;;;5030475;28;20720;-57
2022/10/20 00:41:23;;;;;;;124.65;118.38;;;9.80;99.90;;;;;;5032091;28;20785;-59
2022/10/20 00:44:36;;;;;;;115.93;109.88;;;9.80;99.90;;;;;;5031832;28;20480;-59
2022/10/20 00:47:02;;;;;;;121.32;115.32;;;9.80;99.90;;;;;;5032294;28;20416;-59
2022/10/20 00:49:31;;;;;;;119.53;113.53;;;9.80;99.90;;;;;;5032151;28;20797;-58
2022/10/20 00:51:56;;;;;;;122.10;116.00;;;9.80;99.90;;;;;;5032463;28;20440;-59
2022/10/20 00:54:25;;;;;;;120.28;114.30;;;9.80;99.90;;;;;;5048767;28;20804;-59
2022/10/20 00:56:56;;;;;;;111.40;105.57;;;9.80;99.90;;;;;;5032350;28;20412;-54
2022/10/20 00:59:33;;;;;;;119.32;113.38;;;9.70;99.90;;;;;;5032726;28;20428;-59
2022/10/20 01:02:00;;;;;;;112.47;106.78;;;9.70;99.90;;;;;;5048731;28;20484;-59
2022/10/20 01:04:29;;;;;;;116.45;110.65;;;9.70;99.90;;;;;;5032994;28;20373;-59
2022/10/20 01:06:55;;;;;;;114.22;108.60;;;9.70;99.90;;;;;;5032271;28;20858;-58
2022/10/20 01:09:21;;;;;;;112.47;106.88;;;9.70;99.90;;;;;;5030725;28;20397;-59
2022/10/20 01:11:55;;;;;;;113.90;108.05;;;9.70;99.90;;;;;;5033448;28;20499;-59
2022/10/20 01:14:36;;;;;;;121.30;115.07;;;9.70;99.90;;;;;;5032549;28;20393;-54
2022/10/20 01:17:07;;;;;;;112.32;106.53;;;9.70;99.90;;;;;;5032578;28;20669;-59
2022/10/20 01:20:10;;;;;;;110.78;105.18;;;9.70;99.90;;;;;;5031830;28;20471;-58
2022/10/20 01:22:58;;;;;;;116.05;110.25;;;9.70;99.90;;;;;;5033016;28;20442;-57
2022/10/20 01:25:42;;;;;;;105.40;100.10;;;9.60;99.90;;;;;;5033931;28;20478;-59
2022/10/20 01:28:49;;;;;;;108.13;102.72;;;9.60;99.90;;;;;;5033265;28;20431;-57
2022/10/20 01:31:49;;;;;;;108.65;103.25;;;9.50;99.90;;;;;;5034220;28;20463;-55
2022/10/20 01:34:41;;;;;;;113.40;107.70;;;9.60;99.90;;;;;;5050955;28;20738;-59
2022/10/20 01:37:13;;;;;;;107.32;101.82;;;9.50;99.90;;;;;;5034584;28;20398;-58
2022/10/20 01:40:00;;;;;;;101.68;96.40;;;9.50;99.90;;;;;;5051567;28;20686;-59
2022/10/20 01:42:28;;;;;;;102.70;97.53;;;9.40;99.90;;;;;;5031882;28;20386;-59
2022/10/20 01:44:57;;;;;;;102.03;96.88;;;9.50;99.90;;;;;;5033598;28;20381;-57
2022/10/20 01:47:25;;;;;;;100.18;95.07;;;9.50;99.90;;;;;;5034642;28;20386;-58
2022/10/20 01:49:51;;;;;;;103.30;98.05;;;9.40;99.90;;;;;;5033250;28;20438;-59
2022/10/20 01:52:17;;;;;;;101.60;96.50;;;9.40;99.90;;;;;;5032509;28;20389;-59
2022/10/20 01:54:43;;;;;;;105.78;100.43;;;9.40;99.90;;;;;;5048753;28;20409;-58
2022/10/20 01:57:37;;;;;;;110.27;104.77;;;9.40;99.90;;;;;;5049866;28;20390;-57
2022/10/20 02:00:14;;;;;;;107.57;102.18;;;9.30;99.90;;;;;;5031505;28;20490;-55
2022/10/20 02:02:58;;;;;;;103.10;98.00;;;9.30;99.90;;;;;;5048493;28;20385;-59
2022/10/20 02:05:43;;;;;;;100.40;95.40;;;9.30;99.90;;;;;;5050844;28;20435;-54
2022/10/20 02:08:16;;;;;;;102.10;96.90;;;9.30;99.90;;;;;;5034698;28;20389;-56
2022/10/20 02:10:48;;;;;;;109.97;104.40;;;9.20;99.90;;;;;;5038199;28;20478;-59
2022/10/20 02:13:16;;;;;;;103.83;98.63;;;9.20;99.90;;;;;;5037599;28;20381;-58
2022/10/20 02:15:49;;;;;;;106.13;100.63;;;9.20;99.90;;;;;;5037368;28;20700;-59
2022/10/20 02:18:23;;;;;;;105.07;99.88;;;9.20;99.90;;;;;;5036661;28;20381;-57
2022/10/20 02:20:53;;;;;;;98.40;93.57;;;9.10;99.90;;;;;;5053990;28;20534;-57
2022/10/20 02:23:19;;;;;;;103.38;98.28;;;9.10;99.90;;;;;;5053745;28;20444;-56
2022/10/20 02:25:48;;;;;;;103.28;98.07;;;9.10;99.90;;;;;;5036623;28;20389;-59
2022/10/20 02:28:15;;;;;;;101.03;96.07;;;9.10;99.90;;;;;;5055023;28;20377;-57
2022/10/20 02:30:42;;;;;;;105.40;100.10;;;9.20;99.90;;;;;;5054819;28;20381;-59
2022/10/20 02:33:08;;;;;;;103.28;98.00;;;9.10;99.90;;;;;;5035970;28;20389;-58
2022/10/20 02:35:34;;;;;;;103.32;98.15;;;9.00;99.90;;;;;;5035123;28;20438;-56
2022/10/20 02:38:00;;;;;;;101.13;96.10;;;9.10;99.90;;;;;;5035406;28;20381;-59
2022/10/20 02:40:27;;;;;;;103.75;98.50;;;9.00;99.90;;;;;;5036074;28;20935;-58
2022/10/20 02:42:53;;;;;;;105.10;99.85;;;9.00;99.90;;;;;;5036169;28;20455;-59
2022/10/20 02:45:18;;;;;;;105.13;99.82;;;9.00;99.90;;;;;;5034585;28;20390;-55
2022/10/20 02:47:44;;;;;;;106.90;101.50;;;8.90;99.90;;;;;;5035707;28;20451;-58
2022/10/20 02:50:09;;;;;;;110.33;104.80;;;9.00;99.90;;;;;;5035918;28;20669;-57
2022/10/20 02:52:35;;;;;;;103.10;97.80;;;8.90;99.90;;;;;;5054126;28;20472;-59
2022/10/20 02:55:01;;;;;;;105.78;100.45;;;8.90;99.90;;;;;;5036010;28;20454;-54
2022/10/20 02:57:27;;;;;;;114.45;108.65;;;8.90;99.90;;;;;;5036171;28;20463;-56
2022/10/20 02:59:53;;;;;;;120.67;114.50;;;8.90;99.90;;;;;;5036630;28;20467;-58
2022/10/20 03:02:18;;;;;;;116.38;110.53;;;8.90;99.90;;;;;;5035761;28;20390;-58
2022/10/20 03:04:44;;;;;;;126.25;119.85;;;8.80;99.90;;;;;;5036236;28;20448;-58
2022/10/20 03:07:11;;;;;;;124.33;118.10;;;8.80;99.90;;;;;;5052357;28;20389;-58
2022/10/20 03:09:37;;;;;;;124.22;117.97;;;8.80;99.90;;;;;;5033861;28;20381;-57
2022/10/20 03:12:02;;;;;;;123.90;117.70;;;8.80;99.90;;;;;;5051109;28;20400;-59
2022/10/20 03:14:28;;;;;;;127.57;121.20;;;8.80;99.90;;;;;;5034383;28;20377;-59
2022/10/20 03:16:54;;;;;;;122.80;116.70;;;8.70;99.90;;;;;;5034237;28;20416;-57
2022/10/20 03:19:19;;;;;;;127.45;121.05;;;8.70;99.90;;;;;;5052529;28;20790;-59
2022/10/20 03:21:45;;;;;;;129.37;122.67;;;8.70;99.90;;;;;;5033371;28;20584;-59
2022/10/20 03:24:11;;;;;;;129.80;123.07;;;8.70;99.90;;;;;;5033994;28;20424;-59
2022/10/20 03:26:37;;;;;;;134.20;127.35;;;8.70;99.90;;;;;;5034389;28;20797;-59
2022/10/20 03:29:03;;;;;;;134.65;127.63;;;8.70;99.90;;;;;;5034148;28;20419;-58
2022/10/20 03:31:28;;;;;;;132.00;125.40;;;8.70;99.90;;;;;;5032219;28;20451;-58
2022/10/20 03:33:54;;;;;;;140.23;133.13;;;8.70;99.90;;;;;;5050410;28;20389;-59
2022/10/20 03:36:20;;;;;;;136.27;129.43;;;8.60;99.90;;;;;;5050183;28;20405;-58
2022/10/20 03:38:45;;;;;;;140.03;132.90;;;8.60;99.90;;;;;;5049826;28;20619;-58
2022/10/20 03:41:11;;;;;;;136.95;130.02;;;8.60;99.90;;;;;;5032329;28;20425;-57
2022/10/20 03:43:40;;;;;;;141.55;134.38;;;8.60;99.90;;;;;;5033582;28;20665;-58
2022/10/20 03:46:09;;;;;;;139.27;132.15;;;8.60;99.90;;;;;;5032249;28;20766;-58
2022/10/20 03:48:36;;;;;;;139.32;132.38;;;8.50;99.90;;;;;;5032676;28;20385;-58
2022/10/20 03:51:02;;;;;;;134.30;127.50;;;8.50;99.90;;;;;;5031810;28;20776;-59
2022/10/20 03:53:29;;;;;;;136.75;129.48;;;8.40;99.90;;;;;;5027918;28;20386;-58
2022/10/20 03:55:54;;;;;;;125.60;119.18;;;8.40;99.90;;;;;;5031896;28;20719;-56
2022/10/20 03:58:20;;;;;;;129.80;123.30;;;8.40;99.90;;;;;;5031925;28;20825;-57
2022/10/20 04:00:46;;;;;;;129.90;123.28;;;8.40;99.90;;;;;;5032101;28;20637;-59
2022/10/20 04:03:12;;;;;;;127.15;120.55;;;8.40;99.90;;;;;;5031539;28;20393;-56
2022/10/20 04:05:38;;;;;;;126.22;119.70;;;8.40;99.90;;;;;;5030322;28;20443;-54
2022/10/20 04:08:04;;;;;;;127.22;120.72;;;8.40;99.90;;;;;;5048024;28;20657;-59
2022/10/20 04:10:29;;;;;;;123.70;117.43;;;8.40;99.90;;;;;;5029517;28;20386;-59
2022/10/20 04:13:01;;;;;;;120.22;113.97;;;8.40;99.90;;;;;;5046908;28;21028;-59
2022/10/20 04:15:27;;;;;;;122.03;115.80;;;8.30;99.90;;;;;;5026417;28;20396;-59
2022/10/20 04:17:52;;;;;;;129.47;122.57;;;8.30;99.90;;;;;;5026082;28;20469;-56
2022/10/20 04:20:18;;;;;;;126.43;119.73;;;8.30;99.90;;;;;;5024435;28;20836;-59
2022/10/20 04:22:44;;;;;;;121.20;114.65;;;8.30;99.90;;;;;;5025494;28;20705;-59
2022/10/20 04:25:11;;;;;;;126.68;119.88;;;8.30;99.90;;;;;;5024733;28;20534;-59
2022/10/20 04:27:37;;;;;;;122.22;115.63;;;8.30;99.90;;;;;;5025123;28;20388;-59
2022/10/20 04:30:04;;;;;;;123.70;116.47;;;8.30;99.90;;;;;;5025289;28;20547;-58
2022/10/20 04:32:29;;;;;;;118.75;112.55;;;8.20;99.90;;;;;;5027174;28;20405;-59
2022/10/20 04:34:55;;;;;;;110.27;104.33;;;8.20;99.90;;;;;;5029484;28;20575;-58
2022/10/20 04:37:21;;;;;;;109.20;103.38;;;8.20;99.90;;;;;;5046862;28;20491;-58
2022/10/20 04:39:46;;;;;;;111.70;105.70;;;8.20;99.90;;;;;;5046504;28;20413;-58
2022/10/20 04:42:12;;;;;;;118.47;112.10;;;8.20;99.90;;;;;;5030159;28;20488;-57
2022/10/20 04:44:38;;;;;;;123.20;116.70;;;8.20;99.90;;;;;;5029057;28;20396;-59
2022/10/20 04:47:04;;;;;;;116.80;110.63;;;8.10;99.90;;;;;;5047809;28;20389;-57
2022/10/20 04:49:29;;;;;;;126.87;119.97;;;8.10;99.90;;;;;;5028823;28;20404;-59
2022/10/20 04:51:54;;;;;;;118.60;112.25;;;8.10;99.90;;;;;;5028786;28;20381;-56
2022/10/20 04:54:20;;;;;;;123.07;116.50;;;8.10;99.90;;;;;;5027687;28;20805;-58
2022/10/20 04:56:45;;;;;;;124.60;118.07;;;8.10;99.90;;;;;;5024771;28;20714;-58
2022/10/20 04:59:11;;;;;;;121.35;114.85;;;8.00;99.90;;;;;;5043739;28;20409;-56
2022/10/20 05:01:37;;;;;;;125.97;119.23;;;8.00;99.90;;;;;;5024351;28;20392;-59
2022/10/20 05:04:03;;;;;;;128.05;121.22;;;8.00;99.90;;;;;;5022684;28;20381;-58
2022/10/20 05:06:30;;;;;;;127.20;120.47;;;8.00;99.90;;;;;;5023319;28;20401;-54
2022/10/20 05:08:58;;;;;;;120.95;114.57;;;7.90;99.90;;;;;;5042078;28;20423;-60
2022/10/20 05:11:25;;;;;;;124.43;117.90;;;7.90;99.90;;;;;;5024634;28;20649;-58
2022/10/20 05:13:51;;;;;;;132.38;125.18;;;7.90;99.90;;;;;;5025070;28;20389;-58
2022/10/20 05:16:17;;;;;;;131.80;124.60;;;7.90;99.90;;;;;;5025149;28;20385;-58
2022/10/20 05:18:43;;;;;;;130.93;123.90;;;7.90;99.90;;;;;;5029389;28;20890;-59
2022/10/20 05:21:11;;;;;;;133.38;126.38;;;7.80;99.90;;;;;;5029444;28;21145;-56
2022/10/20 05:23:38;;;;;;;130.45;123.35;;;7.90;99.90;;;;;;5028810;28;20745;-57
2022/10/20 05:26:06;;;;;;;132.73;125.43;;;7.90;99.90;;;;;;5047802;28;20377;-55
2022/10/20 05:28:32;;;;;;;122.00;115.55;;;7.90;99.90;;;;;;5047019;28;20397;-59
2022/10/20 05:31:02;;;;;;;127.30;120.40;;;7.90;99.90;;;;;;5030016;28;20389;-56
2022/10/20 05:33:28;;;;;;;125.47;118.77;;;7.90;99.90;;;;;;5029799;28;20421;-58
2022/10/20 05:35:53;;;;;;;124.53;117.93;;;7.80;99.90;;;;;;5029005;28;20508;-56
2022/10/20 05:38:19;;;;;;;127.93;121.23;;;7.80;99.90;;;;;;5030826;28;20566;-57
2022/10/20 05:40:44;;;;;;;122.15;115.78;;;7.80;99.90;;;;;;5029975;28;20401;-58
2022/10/20 05:43:10;;;;;;;117.30;111.03;;;7.80;99.90;;;;;;5048201;28;20646;-56
2022/10/20 05:45:35;;;;;;;112.93;107.03;;;7.80;99.90;;;;;;5028978;28;20408;-59
2022/10/20 05:48:01;;;;;;;105.32;99.63;;;7.80;99.90;;;;;;5028686;28;20382;-57
2022/10/20 05:50:26;;;;;;;109.67;103.73;;;7.80;99.90;;;;;;5027434;28;20405;-58
2022/10/20 05:52:52;;;;;;;100.83;95.27;;;7.80;99.90;;;;;;5027192;28;20416;-59
2022/10/20 05:55:18;;;;;;;95.47;90.28;;;7.70;99.90;;;;;;5026004;28;20444;-56
2022/10/20 05:57:43;;;;;;;87.40;82.85;;;7.80;99.90;;;;;;5043173;28;20397;-59
2022/10/20 06:00:10;;;;;;;98.60;93.13;;;7.80;99.90;;;;;;5025853;28;20408;-58
2022/10/20 06:02:36;;;;;;;92.28;87.25;;;7.80;99.90;;;;;;5025943;28;20741;-59
2022/10/20 06:05:02;;;;;;;91.68;86.88;;;7.80;99.90;;;;;;5025842;28;20408;-59
2022/10/20 06:07:27;;;;;;;88.90;84.07;;;7.70;99.90;;;;;;5024921;28;20386;-58
2022/10/20 06:09:53;;;;;;;93.97;88.77;;;7.70;99.90;;;;;;5022113;28;20403;-57
2022/10/20 06:12:19;;;;;;;113.35;107.35;;;7.70;99.90;;;;;;5041517;28;20382;-59
2022/10/20 06:14:44;;;;;;;116.10;109.90;;;7.70;99.90;;;;;;5023580;28;20465;-59
2022/10/20 06:17:10;;;;;;;121.40;115.10;;;7.70;99.90;;;;;;5024333;28;20396;-57
2022/10/20 06:19:35;;;;;;;109.55;103.93;;;7.70;99.90;;;;;;5025472;28;20667;-57
2022/10/20 06:22:01;;;;;;;102.97;97.57;;;7.80;99.90;;;;;;5023206;28;20394;-58
2022/10/20 06:24:26;;;;;;;119.50;113.20;;;7.80;99.90;;;;;;5024121;28;20793;-57
2022/10/20 06:26:52;;;;;;;112.53;106.80;;;7.80;99.90;;;;;;5023350;28;20476;-59
2022/10/20 06:29:18;;;;;;;111.47;105.50;;;7.80;99.90;;;;;;5023723;28;20400;-57
2022/10/20 06:31:46;;;;;;;112.38;106.20;;;7.80;99.90;;;;;;5041550;28;20707;-57
2022/10/20 06:34:20;;;;;;;105.63;100.18;;;7.80;99.90;;;;;;5038983;28;20397;-57
2022/10/20 06:36:46;;;;;;;100.45;95.32;;;7.80;99.90;;;;;;5020481;28;20714;-58
2022/10/20 06:39:18;;;;;;;104.53;98.93;;;7.80;99.90;;;;;;5020202;28;20849;-56
2022/10/20 06:41:52;;;;;;;101.07;95.70;;;7.90;99.90;;;;;;5016270;28;20762;-59
2022/10/20 06:44:19;;;;;;;101.15;95.78;;;7.90;99.90;;;;;;5016526;28;20377;-56
2022/10/20 06:46:45;;;;;;;102.00;96.57;;;7.90;99.90;;;;;;5035974;28;20393;-58
2022/10/20 06:49:12;;;;;;;99.18;93.97;;;7.90;99.90;;;;;;5019024;28;20597;-59
2022/10/20 06:51:37;;;;;;;101.97;96.40;;;7.90;99.90;;;;;;5019638;28;20812;-53
2022/10/20 06:54:04;;;;;;;105.35;99.90;;;8.00;99.90;;;;;;5016076;28;20906;-59
2022/10/20 06:56:31;;;;;;;102.68;97.07;;;8.00;99.90;;;;;;5018765;28;20381;-53
2022/10/20 06:58:58;;;;;;;98.28;93.03;;;8.10;99.90;;;;;;5017928;28;20843;-57
2022/10/20 07:01:32;;;;;;;104.43;98.75;;;8.10;99.90;;;;;;5019170;28;20677;-57
2022/10/20 07:04:01;;;;;;;99.63;94.43;;;8.10;99.90;;;;;;5019935;28;20373;-58
2022/10/20 07:06:29;;;;;;;101.45;96.05;;;8.20;99.90;;;;;;5018220;28;20432;-58
2022/10/20 07:08:56;;;;;;;105.88;100.20;;;8.20;99.90;;;;;;5034566;28;20665;-57
2022/10/20 07:11:24;;;;;;;115.25;109.15;;;8.20;99.90;;;;;;5015442;28;20417;-56
2022/10/20 07:13:50;;;;;;;98.60;93.38;;;8.30;99.90;;;;;;5011782;28;20663;-59
2022/10/20 07:16:19;;;;;;;105.18;99.65;;;8.30;99.90;;;;;;5014189;28;20837;-59
2022/10/20 07:18:45;;;;;;;101.45;95.93;;;8.40;99.90;;;;;;5012550;28;20433;-55
2022/10/20 07:21:13;;;;;;;106.68;100.80;;;8.50;99.90;;;;;;5013526;28;20452;-57
2022/10/20 07:23:39;;;;;;;99.38;94.07;;;8.50;99.90;;;;;;5013019;28;20390;-58
2022/10/20 07:26:10;;;;;;;98.20;92.83;;;8.50;99.90;;;;;;5016433;28;20474;-56
2022/10/20 07:28:39;;;;;;;108.35;102.43;;;8.60;99.90;;;;;;5018030;28;20700;-59
2022/10/20 07:31:29;;;;;;;98.53;92.95;;;8.60;99.90;;;;;;5019984;28;20772;-54
2022/10/20 07:33:57;;;;;;;96.43;91.03;;;8.70;99.90;;;;;;5037411;28;20765;-61
2022/10/20 07:36:28;;;;;;;95.05;89.88;;;8.70;99.90;;;;;;5019368;28;20878;-59
2022/10/20 07:38:56;;;;;;;91.57;86.75;;;8.80;99.90;;;;;;5037237;28;20496;-58
2022/10/20 07:41:22;;;;;;;93.13;88.13;;;8.80;99.90;;;;;;5017870;28;20475;-56
2022/10/20 07:43:48;;;;;;;88.93;84.03;;;8.90;99.90;;;;;;5034623;28;20780;-55
2022/10/20 07:46:15;;;;;;;97.50;92.10;;;8.90;99.90;;;;;;5032555;28;20445;-58
2022/10/20 07:48:40;;;;;;;91.32;86.32;;;9.00;99.90;;;;;;5015320;28;20466;-57
2022/10/20 07:51:25;;;;;;;90.30;85.30;;;9.00;99.90;;;;;;5017091;28;20405;-58
2022/10/20 07:53:52;;;;;;;92.45;87.43;;;9.00;99.90;;;;;;5017667;28;20517;-55
2022/10/20 07:56:19;;;;;;;92.13;87.28;;;9.00;99.90;;;;;;5031772;28;20377;-58
2022/10/20 07:58:45;;;;;;;89.28;84.45;;;9.10;99.90;;;;;;5031366;28;20502;-57
2022/10/20 08:01:10;;;;;;;95.00;89.78;;;9.20;99.90;;;;;;5015038;28;20722;-58
2022/10/20 08:03:36;;;;;;;95.25;90.13;;;9.20;99.90;;;;;;5014521;28;20442;-56
2022/10/20 08:06:02;;;;;;;92.43;87.33;;;9.30;99.90;;;;;;5015368;28;20393;-58
2022/10/20 08:08:28;;;;;;;99.13;93.72;;;9.40;99.90;;;;;;5034557;28;20432;-56
2022/10/20 08:10:54;;;;;;;90.72;85.93;;;9.40;99.90;;;;;;5016500;28;20484;-57
2022/10/20 08:13:20;;;;;;;97.78;92.53;;;9.40;99.90;;;;;;5016684;28;20409;-56
2022/10/20 08:15:46;;;;;;;95.72;90.53;;;9.50;99.90;;;;;;5035221;28;20453;-57
2022/10/20 08:18:11;;;;;;;100.90;95.15;;;9.50;99.90;;;;;;5020428;28;20451;-58
2022/10/20 08:20:37;;;;;;;105.45;99.90;;;9.60;99.90;;;;;;5019893;28;20773;-53
2022/10/20 08:23:02;;;;;;;108.20;102.40;;;9.60;99.90;;;;;;5017922;28;20474;-55
2022/10/20 08:25:28;;;;;;;108.73;102.87;;;9.60;99.90;;;;;;5035059;28;20378;-57
2022/10/20 08:27:54;;;;;;;121.95;115.43;;;9.70;99.90;;;;;;5015291;28;20467;-58
2022/10/20 08:30:19;;;;;;;118.18;111.95;;;9.70;99.90;;;;;;5018417;28;20416;-59
2022/10/20 08:32:49;;;;;;;128.57;121.67;;;9.70;99.90;;;;;;5018512;28;20390;-58
2022/10/20 08:35:14;;;;;;;122.03;115.63;;;9.80;99.90;;;;;;5014097;28;20419;-57
2022/10/20 08:37:40;;;;;;;125.55;118.88;;;9.80;99.90;;;;;;5013570;28;20414;-59
2022/10/20 08:40:06;;;;;;;138.13;130.83;;;9.90;99.90;;;;;;5014866;28;20411;-58
2022/10/20 08:42:38;;;;;;;144.30;136.53;;;9.90;99.90;;;;;;5013666;28;20871;-59
2022/10/20 08:45:04;;;;;;;130.60;123.45;;;9.90;99.90;;;;;;5014096;28;20379;-58
2022/10/20 08:47:34;;;;;;;139.55;131.93;;;10.00;99.90;;;;;;5013070;28;20912;-58
2022/10/20 08:50:03;;;;;;;135.27;128.17;;;10.00;99.90;;;;;;5012228;28;20441;-59
2022/10/20 08:52:29;;;;;;;139.25;131.73;;;10.00;99.90;;;;;;5013613;28;20598;-59
2022/10/20 08:54:56;;;;;;;141.77;134.27;;;10.10;99.90;;;;;;5011564;28;20626;-58
2022/10/20 08:57:24;;;;;;;136.70;129.50;;;10.10;99.90;;;;;;5014961;28;20387;-58
2022/10/20 08:59:57;;;;;;;128.50;121.85;;;10.10;99.90;;;;;;5013775;28;20519;-59
2022/10/20 09:02:23;;;;;;;130.47;123.53;;;10.10;99.90;;;;;;5015113;28;20619;-58
2022/10/20 09:04:53;;;;;;;122.93;116.70;;;10.20;99.90;;;;;;5013004;28;20395;-58
2022/10/20 09:07:33;;;;;;;130.13;123.53;;;10.30;99.90;;;;;;5014411;28;20437;-58
2022/10/20 09:10:25;;;;;;;128.23;121.63;;;10.40;99.90;;;;;;5016825;28;20387;-60
2022/10/20 09:12:51;;;;;;;132.57;125.68;;;10.40;99.90;;;;;;5010974;28;20514;-56
2022/10/20 09:15:18;;;;;;;135.20;128.43;;;10.50;99.90;;;;;;5013576;28;20663;-59
2022/10/20 09:18:05;;;;;;;142.68;135.32;;;10.50;99.90;;;;;;5013557;28;20453;-57
2022/10/20 09:20:46;;;;;;;141.27;134.20;;;10.60;99.90;;;;;;5002798;28;20422;-61
2022/10/20 09:23:15;;;;;;;144.35;136.73;;;10.70;99.90;;;;;;5020198;28;20942;-60
2022/10/20 09:25:42;;;;;;;152.43;144.77;;;10.70;99.90;;;;;;5020576;28;20434;-58
2022/10/20 09:28:20;;;;;;;146.50;138.90;;;10.80;99.90;;;;;;5021588;28;20407;-60
2022/10/20 09:30:46;;;;;;;146.33;138.83;;;10.80;99.90;;;;;;5022147;28;20422;-59
2022/10/20 09:33:29;;;;;;;149.50;141.77;;;10.80;99.90;;;;;;5022534;28;20421;-52
2022/10/20 09:36:19;;;;;;;137.65;130.52;;;10.80;99.90;;;;;;5041748;28;20424;-50
2022/10/20 09:38:48;;;;;;;142.00;134.57;;;11.00;99.90;;;;;;5026881;28;20403;-60
2022/10/20 09:41:31;;;;;;;150.50;142.40;;;11.10;99.90;;;;;;5044459;28;20501;-56
2022/10/20 09:44:03;;;;;;;149.10;140.77;;;11.10;99.90;;;;;;5025192;28;20396;-58
2022/10/20 09:46:36;;;;;;;146.80;139.15;;;11.10;99.90;;;;;;5042983;28;20447;-60
2022/10/20 09:49:02;;;;;;;148.15;140.55;;;11.10;99.90;;;;;;5026805;28;20414;-60
2022/10/20 09:51:29;;;;;;;152.57;144.68;;;11.10;99.90;;;;;;5027756;28;20404;-58
2022/10/20 09:54:01;;;;;;;153.60;145.43;;;11.20;99.90;;;;;;5025916;28;20885;-60
2022/10/20 09:56:37;;;;;;;151.95;144.02;;;11.30;99.90;;;;;;5024893;28;20396;-58
2022/10/20 09:59:18;;;;;;;158.98;150.25;;;11.40;99.90;;;;;;5043714;28;20997;-60
2022/10/20 10:01:59;;;;;;;152.80;144.48;;;11.60;99.90;;;;;;5026087;28;20774;-60
2022/10/20 10:04:34;;;;;;;143.88;135.90;;;11.90;99.90;;;;;;5025083;28;21056;-60
2022/10/20 10:07:01;;;;;;;137.93;130.13;;;12.10;99.90;;;;;;5027549;28;20398;-57
2022/10/20 10:09:36;;;;;;;132.73;125.28;;;12.30;99.90;;;;;;5026227;28;20793;-59
2022/10/20 10:12:11;;;;;;;132.43;124.85;;;12.40;99.90;;;;;;5027629;28;20491;-59
2022/10/20 10:14:47;;;;;;;137.67;130.07;;;12.50;99.90;;;;;;5028929;28;20393;-58
2022/10/20 10:17:28;;;;;;;136.05;128.38;;;12.60;99.90;;;;;;5030483;28;20685;-59
2022/10/20 10:19:54;;;;;;;137.57;129.75;;;12.50;99.90;;;;;;5029129;28;20420;-60
2022/10/20 10:22:20;;;;;;;128.75;121.72;;;12.70;99.90;;;;;;5028465;28;20385;-59
2022/10/20 10:24:48;;;;;;;125.33;118.43;;;12.90;99.90;;;;;;5026207;28;20381;-60
2022/10/20 10:27:26;;;;;;;118.90;112.53;;;13.00;99.90;;;;;;5027218;28;20381;-60
2022/10/20 10:29:53;;;;;;;109.63;103.65;;;13.10;99.90;;;;;;5026245;28;20458;-57
2022/10/20 10:32:25;;;;;;;109.13;103.43;;;13.10;99.90;;;;;;5024518;28;20385;-57
2022/10/20 10:35:27;;;;;;;103.27;97.67;;;13.30;99.90;;;;;;5041756;28;20520;-58
2022/10/20 10:37:55;;;;;;;107.57;101.88;;;13.30;99.90;;;;;;5027338;28;20385;-59
2022/10/20 10:40:25;;;;;;;98.03;92.90;;;13.60;99.90;;;;;;5028325;28;20413;-59
2022/10/20 10:43:12;;;;;;;99.80;94.60;;;13.80;99.90;;;;;;5029487;28;20390;-58
2022/10/20 10:45:50;;;;;;;100.95;95.65;;;13.90;99.90;;;;;;5030050;28;20386;-58
2022/10/20 10:48:29;;;;;;;99.57;94.45;;;13.80;99.90;;;;;;5028787;28;20789;-57
2022/10/20 10:51:00;;;;;;;106.57;100.97;;;14.00;99.90;;;;;;5048005;28;20405;-59
2022/10/20 10:54:02;;;;;;;110.70;104.97;;;14.10;99.90;;;;;;5045234;28;20385;-59
2022/10/20 10:56:43;;;;;;;126.47;119.75;;;14.30;99.90;;;;;;5025989;28;20381;-59
2022/10/20 10:59:31;;;;;;;123.03;116.40;;;14.50;99.90;;;;;;5026001;28;20482;-59
2022/10/20 11:02:35;;;;;;;133.35;126.10;;;14.50;99.90;;;;;;5026242;28;20480;-58
2022/10/20 11:05:09;;;;;;;124.40;117.93;;;14.30;99.90;;;;;;5027776;28;20397;-59
2022/10/20 11:07:50;;;;;;;115.82;109.90;;;14.10;99.90;;;;;;5027458;28;20389;-59
2022/10/20 11:10:33;;;;;;;118.25;112.15;;;14.30;99.90;;;;;;5046218;28;20396;-60
2022/10/20 11:13:18;;;;;;;119.38;113.22;;;14.40;99.90;;;;;;5025738;28;20388;-60
2022/10/20 11:16:02;;;;;;;130.57;123.78;;;14.50;99.90;;;;;;5021416;28;20506;-59
2022/10/20 11:18:53;;;;;;;140.25;132.85;;;14.50;99.90;;;;;;5024138;28;20416;-58
2022/10/20 11:21:28;;;;;;;148.13;140.32;;;14.90;99.90;;;;;;5021026;28;20413;-59
2022/10/20 11:24:06;;;;;;;140.45;132.98;;;14.90;99.90;;;;;;5024141;28;20939;-59
2022/10/20 11:26:38;;;;;;;147.40;139.80;;;15.00;99.90;;;;;;5022185;28;20948;-58
2022/10/20 11:29:08;;;;;;;150.13;142.43;;;14.90;99.90;;;;;;5020705;28;20901;-59
2022/10/20 11:31:47;;;;;;;150.38;142.43;;;15.10;99.90;;;;;;5044392;28;20378;-60
2022/10/20 11:34:20;;;;;;;153.30;145.18;;;15.20;99.90;;;;;;5028519;28;20448;-60
2022/10/20 11:36:59;;;;;;;155.60;147.07;;;15.20;99.90;;;;;;5028166;28;21081;-59
2022/10/20 11:39:47;;;;;;;142.95;134.90;;;15.30;99.90;;;;;;5028568;28;20392;-58
2022/10/20 11:42:25;;;;;;;152.80;144.60;;;15.30;99.90;;;;;;5026441;28;20396;-59
2022/10/20 11:44:53;;;;;;;156.27;148.00;;;15.40;99.90;;;;;;5024980;28;20480;-57
2022/10/20 11:47:33;;;;;;;156.77;148.53;;;15.40;99.90;;;;;;5024280;28;20381;-59
2022/10/20 11:49:58;;;;;;;154.35;146.15;;;15.30;99.90;;;;;;5039818;28;20467;-59
2022/10/20 11:52:32;;;;;;;151.33;143.27;;;15.40;99.90;;;;;;5041709;28;20381;-60
2022/10/20 11:55:14;;;;;;;161.33;152.93;;;15.40;99.90;;;;;;5024906;28;20396;-58
2022/10/20 11:57:48;;;;;;;157.98;149.27;;;15.60;99.90;;;;;;5038608;28;20476;-60
2022/10/20 12:00:51;;;;;;;157.55;149.07;;;16.00;99.90;;;;;;5038332;28;20496;-56
2022/10/20 12:03:25;;;;;;;151.43;142.90;;;16.50;99.90;;;;;;5022676;28;20384;-58
2022/10/20 12:06:15;;;;;;;150.50;142.25;;;16.50;99.90;;;;;;5022631;28;20401;-59
2022/10/20 12:08:58;;;;;;;156.63;148.27;;;16.60;99.90;;;;;;5041528;28;20942;-59
2022/10/20 12:11:37;;;;;;;147.05;139.30;;;16.70;99.90;;;;;;5021848;28;20399;-57
2022/10/20 12:14:20;;;;;;;165.82;157.02;;;16.90;99.90;;;;;;5032552;28;20665;-59
2022/10/20 12:16:52;;;;;;;159.05;150.55;;;17.30;99.90;;;;;;5016733;28;20673;-58
2022/10/20 12:19:24;;;;;;;194.20;184.50;;;17.70;99.90;;;;;;5017329;28;20390;-57
2022/10/20 12:22:13;;;;;;;181.07;172.10;;;17.70;99.90;;;;;;5017966;28;20409;-59
2022/10/20 12:24:41;;;;;;;188.93;179.60;;;17.80;99.90;;;;;;5019455;28;20777;-59
2022/10/20 12:27:10;;;;;;;189.00;179.60;;;17.80;99.90;;;;;;5018678;28;20500;-59
2022/10/20 12:29:36;;;;;;;209.75;198.93;;;18.00;99.90;;;;;;5022429;28;20723;-59
2022/10/20 12:32:20;;;;;;;224.80;212.90;;;17.80;99.90;;;;;;5022394;28;20389;-59
2022/10/20 12:35:12;;;;;;;222.47;210.83;;;17.40;99.90;;;;;;5022769;28;20433;-59
2022/10/20 12:37:38;;;;;;;208.18;197.65;;;16.90;99.90;;;;;;4984637;28;20381;-60